Time;durP1;ratioP1;P1;durP2;ratioP2;P2;SDS_P1;SDS_P2;PMS_P1;PMS_P2;Temp;Humidity;BMP_temperature;BMP_pressure;BME280_temperature;BME280_humidity;BME280_pressure;Samples;Min_cycle;Max_cycle;Signal;HPM_P1;HPM_P2
2022/06/16 00:00:39;;;;;;;15.85;4.20;;;;;;;;;;5049872;28;20080;-53
2022/06/16 00:03:13;;;;;;;14.07;4.18;;;;;;;;;;5051623;28;20142;-52
2022/06/16 00:05:41;;;;;;;16.98;4.50;;;;;;;;;;5046962;28;20496;-55
2022/06/16 00:08:07;;;;;;;;;;;;;;;;;;5044792;28;20120;-55
2022/06/16 00:11:23;;;;;;;10.75;4.47;;;;;;;;;;5042985;28;20104;-63
2022/06/16 00:13:37;;;;;;;15.93;4.32;;;;;;;;;;5034483;28;20076;-63
2022/06/16 00:16:10;;;;;;;13.18;4.50;;;;;;;;;;5046435;28;20567;-53
2022/06/16 00:18:38;;;;;;;18.53;4.33;;;;;;;;;;5047219;28;20630;-53
2022/06/16 00:21:04;;;;;;;16.92;4.90;;;;;;;;;;5051802;28;20084;-52
2022/06/16 00:23:38;;;;;;;17.25;4.38;;;;;;;;;;5046069;28;20049;-47
2022/06/16 00:26:19;;;;;;;12.43;4.10;;;;;;;;;;5049860;28;20055;-48
2022/06/16 00:28:53;;;;;;;22.05;4.65;;;;;;;;;;5041091;28;20052;-44
2022/06/16 00:31:21;;;;;;;22.30;4.47;;;;;;;;;;5047247;28;20079;-45
2022/06/16 00:33:48;;;;;;;16.92;4.85;;;;;;;;;;5040262;28;20147;-51
2022/06/16 00:36:22;;;;;;;15.98;4.10;;;;;;;;;;5040158;28;20134;-42
2022/06/16 00:38:49;;;;;;;12.82;4.40;;;;;;;;;;5043626;28;20599;-42
2022/06/16 00:41:15;;;;;;;16.13;4.68;;;;;;;;;;5027719;28;20072;-44
2022/06/16 00:43:48;;;;;;;18.05;4.32;;;;;;;;;;5044088;28;20076;-43
2022/06/16 00:46:22;;;;;;;19.60;4.50;;;;;;;;;;5050743;28;20143;-43
2022/06/16 00:48:57;;;;;;;19.42;3.83;;;;;;;;;;5064430;28;20066;-62
2022/06/16 00:51:37;;;;;;;17.88;4.15;;;;;;;;;;5059506;28;20067;-56
2022/06/16 00:54:22;;;;;;;15.00;4.10;;;;;;;;;;5062710;28;20121;-64
2022/06/16 00:56:51;;;;;;;17.20;5.03;;;;;;;;;;5059301;28;20104;-64
2022/06/16 00:59:24;;;;;;;13.85;3.63;;;;;;;;;;5065577;28;20143;-64
2022/06/16 01:01:51;;;;;;;11.88;4.03;;;;;;;;;;5063364;28;20462;-63
2022/06/16 01:07:11;;;;;;;19.48;3.97;;;;;;;;;;5065959;28;20563;-42
2022/06/16 01:09:38;;;;;;;15.32;4.70;;;;;;;;;;5063144;28;20048;-49
2022/06/16 01:15:04;;;;;;;19.08;3.80;;;;;;;;;;5060478;28;20427;-44
2022/06/16 01:17:33;;;;;;;16.35;4.15;;;;;;;;;;5042462;28;20149;-45
2022/06/16 01:20:15;;;;;;;14.27;4.20;;;;;;;;;;5056859;28;20044;-44
2022/06/16 01:22:51;;;;;;;19.50;4.40;;;;;;;;;;5067377;28;20098;-44
2022/06/16 01:25:43;;;;;;;24.08;4.88;;;;;;;;;;5062168;28;20083;-47
2022/06/16 01:28:18;;;;;;;15.27;4.15;;;;;;;;;;5059319;28;20307;-51
2022/06/16 01:31:02;;;;;;;12.30;3.67;;;;;;;;;;5062306;28;20052;-62
2022/06/16 01:33:29;;;;;;;14.53;4.03;;;;;;;;;;5057505;28;20049;-62
2022/06/16 01:36:12;;;;;;;16.17;3.70;;;;;;;;;;5061487;28;20103;-62
2022/06/16 01:38:53;;;;;;;16.17;4.72;;;;;;;;;;5062394;28;20559;-62
2022/06/16 01:41:27;;;;;;;19.55;4.18;;;;;;;;;;5062851;28;20102;-62
2022/06/16 01:43:58;;;;;;;15.40;4.72;;;;;;;;;;5061531;28;20468;-62
2022/06/16 01:46:34;;;;;;;16.48;4.72;;;;;;;;;;5066527;28;20575;-45
2022/06/16 01:49:18;;;;;;;8.90;4.50;;;;;;;;;;5067254;28;20059;-57
2022/06/16 01:51:51;;;;;;;14.07;3.90;;;;;;;;;;5060733;28;20079;-58
2022/06/16 01:54:27;;;;;;;12.73;4.18;;;;;;;;;;5063380;28;20079;-57
2022/06/16 01:57:00;;;;;;;11.52;4.00;;;;;;;;;;5060394;28;20072;-58
2022/06/16 01:59:39;;;;;;;17.60;4.63;;;;;;;;;;5060851;28;20129;-59
2022/06/16 02:02:08;;;;;;;13.82;4.10;;;;;;;;;;5062778;28;20075;-57
2022/06/16 02:04:56;;;;;;;13.35;3.80;;;;;;;;;;5063847;28;20055;-61
2022/06/16 02:07:26;;;;;;;13.90;4.50;;;;;;;;;;5064506;28;20044;-63
2022/06/16 02:10:01;;;;;;;12.85;4.07;;;;;;;;;;5068366;28;20072;-45
2022/06/16 02:15:27;;;;;;;14.30;3.92;;;;;;;;;;5069717;28;20137;-44
2022/06/16 02:17:55;;;;;;;14.70;3.97;;;;;;;;;;5066511;28;20462;-44
2022/06/16 02:20:31;;;;;;;9.80;4.00;;;;;;;;;;5063387;28;20584;-45
2022/06/16 02:22:58;;;;;;;12.57;3.83;;;;;;;;;;5065936;28;20079;-45
2022/06/16 02:25:25;;;;;;;11.23;3.83;;;;;;;;;;5062019;28;20045;-62
2022/06/16 02:27:58;;;;;;;14.15;4.03;;;;;;;;;;5067786;28;20056;-62
2022/06/16 02:30:26;;;;;;;16.23;4.10;;;;;;;;;;5070113;28;20138;-62
2022/06/16 02:33:19;;;;;;;15.45;4.25;;;;;;;;;;5064437;28;20102;-62
2022/06/16 02:35:51;;;;;;;13.77;4.45;;;;;;;;;;5038625;28;20084;-62
2022/06/16 02:38:36;;;;;;;12.48;4.13;;;;;;;;;;5068031;28;20068;-62
2022/06/16 02:41:12;;;;;;;20.15;4.47;;;;;;;;;;5063240;28;20041;-62
2022/06/16 02:43:45;;;;;;;8.43;4.18;;;;;;;;;;5067808;28;20125;-45
2022/06/16 02:46:28;;;;;;;19.98;4.55;;;;;;;;;;5045261;28;20052;-48
2022/06/16 02:49:22;;;;;;;13.55;4.55;;;;;;;;;;5050953;28;20115;-47
2022/06/16 02:52:14;;;;;;;8.38;3.97;;;;;;;;;;5065334;28;20130;-48
2022/06/16 02:54:45;;;;;;;12.80;4.40;;;;;;;;;;5064296;28;20044;-49
2022/06/16 02:57:23;;;;;;;17.40;4.30;;;;;;;;;;5068107;28;20514;-49
2022/06/16 02:59:57;;;;;;;14.82;4.10;;;;;;;;;;5068148;28;20083;-49
2022/06/16 03:02:34;;;;;;;13.23;4.63;;;;;;;;;;5063900;28;20045;-52
2022/06/16 03:05:04;;;;;;;13.52;4.22;;;;;;;;;;5067197;28;20748;-44
2022/06/16 03:07:38;;;;;;;11.40;3.95;;;;;;;;;;5066176;28;20712;-47
2022/06/16 03:10:05;;;;;;;16.70;4.30;;;;;;;;;;5067358;28;20556;-50
2022/06/16 03:12:32;;;;;;;17.38;4.43;;;;;;;;;;5067409;28;20094;-49
2022/06/16 03:15:06;;;;;;;14.55;4.10;;;;;;;;;;5068175;28;20052;-47
2022/06/16 03:17:32;;;;;;;17.30;4.00;;;;;;;;;;5065434;28;20456;-51
2022/06/16 03:19:59;;;;;;;15.63;4.40;;;;;;;;;;5066018;28;20075;-53
2022/06/16 03:22:32;;;;;;;19.33;4.63;;;;;;;;;;5065289;28;20045;-54
2022/06/16 03:24:58;;;;;;;12.93;4.43;;;;;;;;;;5048223;28;20044;-62
2022/06/16 03:27:25;;;;;;;15.55;3.83;;;;;;;;;;5069329;28;20131;-62
2022/06/16 03:29:57;;;;;;;19.08;4.32;;;;;;;;;;5061373;28;20466;-62
2022/06/16 03:32:24;;;;;;;12.48;4.40;;;;;;;;;;5059816;28;20198;-63
2022/06/16 03:34:50;;;;;;;13.68;4.18;;;;;;;;;;5067275;28;20075;-62
2022/06/16 03:37:24;;;;;;;15.00;4.25;;;;;;;;;;5066255;28;20071;-62
2022/06/16 03:39:50;;;;;;;17.35;4.43;;;;;;;;;;5066831;28;20079;-49
2022/06/16 03:42:17;;;;;;;12.70;4.13;;;;;;;;;;5066504;28;20103;-49
2022/06/16 03:44:51;;;;;;;16.10;4.30;;;;;;;;;;5060296;28;20037;-47
2022/06/16 03:47:24;;;;;;;13.70;3.80;;;;;;;;;;5064714;28;20107;-48
2022/06/16 03:49:58;;;;;;;10.93;3.63;;;;;;;;;;5063095;28;20044;-49
2022/06/16 03:52:24;;;;;;;15.07;4.05;;;;;;;;;;5066330;28;20072;-49
2022/06/16 03:54:51;;;;;;;14.50;4.43;;;;;;;;;;5060014;28;20507;-51
2022/06/16 03:57:24;;;;;;;13.95;3.88;;;;;;;;;;5061047;28;20139;-50
2022/06/16 03:59:51;;;;;;;12.77;4.10;;;;;;;;;;5065472;28;20472;-62
2022/06/16 04:02:17;;;;;;;14.98;3.75;;;;;;;;;;5064239;28;20120;-56
2022/06/16 04:04:51;;;;;;;13.50;4.03;;;;;;;;;;5063539;28;20068;-59
2022/06/16 04:07:18;;;;;;;15.00;4.43;;;;;;;;;;5068918;28;20471;-56
2022/06/16 04:09:44;;;;;;;13.40;3.80;;;;;;;;;;5068615;28;20535;-55
2022/06/16 04:12:18;;;;;;;13.45;4.50;;;;;;;;;;5069165;28;20126;-57
2022/06/16 04:14:44;;;;;;;14.27;4.00;;;;;;;;;;5069669;28;20521;-52
2022/06/16 04:17:10;;;;;;;14.68;3.72;;;;;;;;;;5068564;28;20073;-57
2022/06/16 04:22:29;;;;;;;12.02;3.85;;;;;;;;;;5066580;28;20075;-66
2022/06/16 04:25:02;;;;;;;17.83;4.32;;;;;;;;;;5062919;28;20137;-66
2022/06/16 04:27:28;;;;;;;13.57;3.95;;;;;;;;;;5065188;28;20080;-66
2022/06/16 04:29:54;;;;;;;12.50;3.80;;;;;;;;;;5064646;28;20590;-66
2022/06/16 04:32:28;;;;;;;15.20;4.88;;;;;;;;;;5061696;28;20080;-65
2022/06/16 04:34:54;;;;;;;12.52;3.97;;;;;;;;;;5060805;28;20071;-66
2022/06/16 04:37:20;;;;;;;11.93;3.88;;;;;;;;;;5068096;28;20072;-65
2022/06/16 04:39:53;;;;;;;17.55;4.43;;;;;;;;;;5063250;28;20067;-62
2022/06/16 04:42:20;;;;;;;13.48;3.97;;;;;;;;;;5064112;28;20141;-46
2022/06/16 04:44:47;;;;;;;12.93;3.83;;;;;;;;;;5063754;28;20473;-46
2022/06/16 04:47:33;;;;;;;13.32;3.90;;;;;;;;;;5066049;28;20497;-46
2022/06/16 04:50:07;;;;;;;18.38;3.75;;;;;;;;;;5066203;28;20135;-45
2022/06/16 04:52:40;;;;;;;16.73;4.05;;;;;;;;;;5069298;28;20040;-50
2022/06/16 04:55:08;;;;;;;15.57;3.97;;;;;;;;;;5062927;28;20724;-49
2022/06/16 04:57:34;;;;;;;;;;;;;;;;;;5064381;28;20044;-46
2022/06/16 05:00:10;;;;;;;19.08;3.70;;;;;;;;;;5068528;28;19967;-56
2022/06/16 05:02:52;;;;;;;16.70;4.47;;;;;;;;;;5065317;28;20217;-56
2022/06/16 05:05:25;;;;;;;12.98;3.80;;;;;;;;;;5068439;28;20045;-57
2022/06/16 05:07:51;;;;;;;10.70;3.55;;;;;;;;;;5064308;28;20084;-57
2022/06/16 05:10:18;;;;;;;13.23;3.97;;;;;;;;;;5066597;28;20076;-52
2022/06/16 05:12:51;;;;;;;12.18;3.80;;;;;;;;;;5065086;28;20071;-55
2022/06/16 05:15:17;;;;;;;11.43;3.70;;;;;;;;;;5065426;28;20143;-47
2022/06/16 05:17:43;;;;;;;14.75;3.88;;;;;;;;;;5048445;28;20072;-43
2022/06/16 05:20:17;;;;;;;17.15;4.35;;;;;;;;;;5067303;28;20083;-61
2022/06/16 05:22:43;;;;;;;14.25;3.55;;;;;;;;;;5066134;28;20079;-62
2022/06/16 05:25:10;;;;;;;16.75;4.28;;;;;;;;;;5068144;28;20490;-62
2022/06/16 05:27:43;;;;;;;14.13;4.10;;;;;;;;;;5064337;28;20129;-62
2022/06/16 05:30:10;;;;;;;21.58;4.10;;;;;;;;;;5067420;28;20181;-62
2022/06/16 05:32:36;;;;;;;14.55;3.72;;;;;;;;;;5067027;28;20067;-62
2022/06/16 05:35:11;;;;;;;14.40;4.20;;;;;;;;;;5055366;28;20139;-60
2022/06/16 05:37:37;;;;;;;;;;;;;;;;;;5064032;28;20500;-45
2022/06/16 05:40:04;;;;;;;17.13;3.75;;;;;;;;;;5064067;28;19966;-45
2022/06/16 05:42:38;;;;;;;15.32;3.88;;;;;;;;;;5062849;28;20040;-44
2022/06/16 05:45:05;;;;;;;21.05;3.90;;;;;;;;;;5065184;28;20107;-45
2022/06/16 05:47:31;;;;;;;13.57;4.00;;;;;;;;;;5063945;28;20129;-45
2022/06/16 05:50:05;;;;;;;14.00;3.85;;;;;;;;;;5064063;28;20052;-46
2022/06/16 05:52:32;;;;;;;14.73;3.65;;;;;;;;;;5068437;28;20503;-46
2022/06/16 05:54:59;;;;;;;22.08;4.22;;;;;;;;;;5065064;28;20139;-61
2022/06/16 05:57:32;;;;;;;13.10;3.90;;;;;;;;;;5066512;28;20067;-61
2022/06/16 05:59:58;;;;;;;13.05;4.35;;;;;;;;;;5065168;28;20760;-62
2022/06/16 06:02:24;;;;;;;12.73;3.50;;;;;;;;;;5061861;28;20068;-61
2022/06/16 06:04:58;;;;;;;14.50;3.60;;;;;;;;;;5062884;28;20044;-61
2022/06/16 06:07:24;;;;;;;13.00;4.35;;;;;;;;;;5068957;28;20113;-61
2022/06/16 06:18:28;;;;;;;12.88;3.80;;;;;;;;;;5060355;28;20486;-48
2022/06/16 06:21:01;;;;;;;16.65;3.70;;;;;;;;;;5062929;28;20045;-46
2022/06/16 06:23:35;;;;;;;16.90;3.72;;;;;;;;;;5067714;28;20044;-45
2022/06/16 06:26:01;;;;;;;20.02;4.78;;;;;;;;;;5067583;28;20134;-45
2022/06/16 06:28:27;;;;;;;13.80;3.80;;;;;;;;;;5066091;28;20139;-46
2022/06/16 06:31:01;;;;;;;14.75;4.32;;;;;;;;;;5063195;28;20098;-67
2022/06/16 06:33:27;;;;;;;23.02;4.28;;;;;;;;;;5061763;28;20114;-60
2022/06/16 06:35:56;;;;;;;16.50;3.78;;;;;;;;;;5065078;28;20049;-52
2022/06/16 06:38:30;;;;;;;18.48;4.20;;;;;;;;;;5064817;28;20076;-48
2022/06/16 06:41:04;;;;;;;18.02;3.50;;;;;;;;;;5066515;28;20051;-45
2022/06/16 06:43:38;;;;;;;13.90;3.65;;;;;;;;;;5063844;28;20076;-45
2022/06/16 06:46:05;;;;;;;11.75;3.80;;;;;;;;;;5063962;28;20529;-46
2022/06/16 06:48:31;;;;;;;14.60;3.55;;;;;;;;;;5063886;28;20115;-46
2022/06/16 06:51:11;;;;;;;13.25;3.83;;;;;;;;;;5066330;28;20072;-66
2022/06/16 06:53:37;;;;;;;11.10;3.80;;;;;;;;;;5066541;28;20080;-58
2022/06/16 06:56:04;;;;;;;10.07;3.65;;;;;;;;;;5068070;28;20102;-45
2022/06/16 06:58:37;;;;;;;17.80;3.70;;;;;;;;;;5067145;28;20051;-46
2022/06/16 07:01:03;;;;;;;14.50;3.97;;;;;;;;;;5066526;28;20049;-45
2022/06/16 07:03:30;;;;;;;16.30;3.57;;;;;;;;;;5066978;28;20052;-44
2022/06/16 07:06:03;;;;;;;13.00;3.80;;;;;;;;;;5068810;28;20149;-47
2022/06/16 07:08:31;;;;;;;15.98;3.65;;;;;;;;;;5068448;28;20578;-47
2022/06/16 07:10:57;;;;;;;15.57;2.95;;;;;;;;;;5066964;28;20141;-45
2022/06/16 07:13:33;;;;;;;13.65;2.90;;;;;;;;;;5070430;28;20047;-61
2022/06/16 07:15:59;;;;;;;12.13;3.05;;;;;;;;;;5068205;28;20044;-60
2022/06/16 07:18:26;;;;;;;13.20;3.33;;;;;;;;;;5065275;28;20139;-60
2022/06/16 07:20:59;;;;;;;11.13;2.90;;;;;;;;;;5068679;28;20140;-60
2022/06/16 07:23:27;;;;;;;17.00;3.17;;;;;;;;;;5066269;28;20079;-59
2022/06/16 07:25:53;;;;;;;10.48;2.80;;;;;;;;;;5064516;28;20141;-60
2022/06/16 07:28:27;;;;;;;14.50;3.75;;;;;;;;;;5051143;28;20076;-57
2022/06/16 07:30:53;;;;;;;15.10;3.35;;;;;;;;;;5067021;28;20052;-61
2022/06/16 07:33:39;;;;;;;12.07;2.80;;;;;;;;;;5064552;28;20040;-45
2022/06/16 07:36:13;;;;;;;9.82;3.20;;;;;;;;;;5067272;28;20105;-45
2022/06/16 07:38:39;;;;;;;10.52;3.38;;;;;;;;;;5064464;28;20570;-44
2022/06/16 07:43:58;;;;;;;11.52;3.42;;;;;;;;;;5062358;28;20388;-46
2022/06/16 07:46:25;;;;;;;13.90;4.20;;;;;;;;;;5068751;28;20894;-45
2022/06/16 07:48:52;;;;;;;10.02;2.97;;;;;;;;;;5065243;28;20057;-50
2022/06/16 07:51:26;;;;;;;10.18;3.05;;;;;;;;;;5069186;28;20452;-46
2022/06/16 07:53:52;;;;;;;10.93;3.00;;;;;;;;;;5063936;28;20123;-49
2022/06/16 07:56:20;;;;;;;10.50;3.00;;;;;;;;;;5069087;28;20124;-48
2022/06/16 07:58:53;;;;;;;13.95;2.92;;;;;;;;;;5066537;28;20083;-49
2022/06/16 08:01:19;;;;;;;17.40;3.72;;;;;;;;;;5069204;28;20542;-49
2022/06/16 08:03:46;;;;;;;12.00;3.13;;;;;;;;;;5067728;28;20048;-47
2022/06/16 08:06:26;;;;;;;14.88;3.72;;;;;;;;;;5067089;28;20072;-45
2022/06/16 08:08:53;;;;;;;12.68;3.10;;;;;;;;;;5066755;28;20044;-47
2022/06/16 08:14:12;;;;;;;13.77;3.55;;;;;;;;;;5064980;28;20562;-50
2022/06/16 08:16:45;;;;;;;8.35;2.90;;;;;;;;;;5065667;28;20077;-55
2022/06/16 08:19:11;;;;;;;14.10;4.20;;;;;;;;;;5066144;28;20048;-54
2022/06/16 08:21:38;;;;;;;7.72;3.08;;;;;;;;;;5067265;28;20033;-54
2022/06/16 08:24:12;;;;;;;11.95;3.17;;;;;;;;;;5059818;28;20139;-49
2022/06/16 08:26:38;;;;;;;7.05;2.58;;;;;;;;;;5067182;28;20468;-61
2022/06/16 08:29:06;;;;;;;7.82;2.63;;;;;;;;;;5067275;28;20082;-61
2022/06/16 08:31:40;;;;;;;9.32;2.50;;;;;;;;;;5069509;28;20137;-61
2022/06/16 08:34:06;;;;;;;6.83;2.60;;;;;;;;;;5058126;28;20060;-61
2022/06/16 08:36:33;;;;;;;10.77;2.60;;;;;;;;;;5066805;28;20490;-62
2022/06/16 08:39:08;;;;;;;15.35;3.13;;;;;;;;;;5065333;28;20080;-61
2022/06/16 08:41:34;;;;;;;;;;;;;;;;;;5065551;28;20086;-62
2022/06/16 08:44:03;;;;;;;15.38;2.90;;;;;;;;;;5069732;28;20380;-61
2022/06/16 08:46:44;;;;;;;9.93;2.60;;;;;;;;;;5063637;28;20506;-46
2022/06/16 08:49:29;;;;;;;9.52;2.95;;;;;;;;;;5065201;28;20056;-66
2022/06/16 08:52:28;;;;;;;10.52;3.13;;;;;;;;;;5065007;28;20634;-66
2022/06/16 08:55:04;;;;;;;9.77;2.30;;;;;;;;;;5063843;28;20263;-66
2022/06/16 08:57:47;;;;;;;11.70;2.75;;;;;;;;;;5066115;28;20076;-66
2022/06/16 09:00:34;;;;;;;10.75;2.83;;;;;;;;;;5049189;28;20579;-66
2022/06/16 09:03:19;;;;;;;8.88;2.65;;;;;;;;;;5051735;28;20040;-67
2022/06/16 09:05:52;;;;;;;12.25;2.85;;;;;;;;;;5066749;28;20052;-58
2022/06/16 09:08:43;;;;;;;12.10;2.97;;;;;;;;;;5066015;28;20103;-60
2022/06/16 09:11:10;;;;;;;11.85;2.55;;;;;;;;;;5065423;28;20040;-60
2022/06/16 09:13:50;;;;;;;10.80;2.63;;;;;;;;;;5066040;28;20071;-59
2022/06/16 09:16:28;;;;;;;10.75;2.63;;;;;;;;;;5063966;28;20119;-60
2022/06/16 09:19:20;;;;;;;9.13;2.72;;;;;;;;;;5060114;28;20049;-59
2022/06/16 09:21:58;;;;;;;9.02;2.42;;;;;;;;;;5065223;28;20484;-60
2022/06/16 09:24:41;;;;;;;8.32;2.50;;;;;;;;;;5051446;28;20156;-47
2022/06/16 09:27:11;;;;;;;7.95;2.50;;;;;;;;;;5052632;28;20558;-59
2022/06/16 09:29:48;;;;;;;12.50;2.80;;;;;;;;;;5061591;28;20136;-60
2022/06/16 09:32:49;;;;;;;11.45;3.25;;;;;;;;;;5062837;28;20044;-60
2022/06/16 09:35:33;;;;;;;11.02;2.60;;;;;;;;;;5003116;28;20304;-60
2022/06/16 09:38:19;;;;;;;9.60;2.67;;;;;;;;;;5063230;28;20076;-60
2022/06/16 09:41:02;;;;;;;6.53;2.80;;;;;;;;;;5062476;28;20695;-60
2022/06/16 09:43:35;;;;;;;7.78;2.70;;;;;;;;;;5065401;28;20115;-67
2022/06/16 09:46:23;;;;;;;6.82;2.58;;;;;;;;;;5063040;28;20110;-69
2022/06/16 09:49:04;;;;;;;12.10;2.60;;;;;;;;;;5064615;28;20345;-68
2022/06/16 09:51:54;;;;;;;8.57;2.55;;;;;;;;;;5065148;28;20135;-69
2022/06/16 09:54:33;;;;;;;6.05;2.30;;;;;;;;;;5058493;28;20152;-69
2022/06/16 09:57:10;;;;;;;7.88;2.20;;;;;;;;;;5064460;28;20059;-70
2022/06/16 09:59:39;;;;;;;5.57;1.90;;;;;;;;;;5063833;28;20094;-70
2022/06/16 10:02:11;;;;;;;9.38;2.25;;;;;;;;;;5067357;28;20048;-60
2022/06/16 10:04:48;;;;;;;9.98;3.00;;;;;;;;;;5063912;28;20572;-50
2022/06/16 10:07:27;;;;;;;6.55;2.22;;;;;;;;;;5070951;28;20080;-49
2022/06/16 10:10:22;;;;;;;6.82;2.10;;;;;;;;;;5063451;28;20080;-52
2022/06/16 10:12:51;;;;;;;7.40;2.35;;;;;;;;;;5020233;28;20040;-55
2022/06/16 10:15:31;;;;;;;6.43;2.05;;;;;;;;;;5069593;28;20086;-54
2022/06/16 10:17:58;;;;;;;5.53;1.83;;;;;;;;;;5066689;28;20124;-53
2022/06/16 10:20:32;;;;;;;6.53;2.13;;;;;;;;;;5062081;28;20119;-51
2022/06/16 10:23:12;;;;;;;8.48;2.15;;;;;;;;;;5070619;28;20075;-61
2022/06/16 10:25:47;;;;;;;9.10;2.55;;;;;;;;;;5064338;28;20082;-59
2022/06/16 10:28:20;;;;;;;10.05;2.75;;;;;;;;;;5065238;28;20109;-61
2022/06/16 10:30:53;;;;;;;7.18;2.08;;;;;;;;;;5069072;28;20518;-61
2022/06/16 10:33:21;;;;;;;8.27;2.50;;;;;;;;;;5067863;28;20068;-61
2022/06/16 10:35:53;;;;;;;6.65;1.85;;;;;;;;;;5066356;28;20076;-59
2022/06/16 10:38:46;;;;;;;7.88;2.15;;;;;;;;;;5071759;28;20072;-60
2022/06/16 10:41:23;;;;;;;5.70;1.80;;;;;;;;;;5067567;28;20045;-60
2022/06/16 10:43:59;;;;;;;11.88;2.45;;;;;;;;;;5068926;28;20040;-46
2022/06/16 10:46:30;;;;;;;5.80;2.10;;;;;;;;;;5068730;28;20052;-48
2022/06/16 10:49:04;;;;;;;7.70;2.50;;;;;;;;;;5065692;28;20092;-47
2022/06/16 10:51:46;;;;;;;8.63;2.33;;;;;;;;;;5071278;28;20102;-46
2022/06/16 10:54:21;;;;;;;8.60;1.85;;;;;;;;;;5066973;28;20087;-51
2022/06/16 10:57:05;;;;;;;10.27;2.42;;;;;;;;;;5067880;28;20098;-45
2022/06/16 10:59:34;;;;;;;8.02;2.38;;;;;;;;;;5066066;28;20756;-51
2022/06/16 11:02:16;;;;;;;6.55;2.35;;;;;;;;;;5066950;28;20128;-46
2022/06/16 11:04:43;;;;;;;7.90;2.30;;;;;;;;;;5067695;28;20048;-45
2022/06/16 11:07:18;;;;;;;6.30;1.73;;;;;;;;;;5066373;28;20072;-44
2022/06/16 11:09:45;;;;;;;8.52;2.22;;;;;;;;;;5066819;28;20133;-46
2022/06/16 11:12:17;;;;;;;9.05;1.88;;;;;;;;;;5065294;28;20113;-44
2022/06/16 11:14:59;;;;;;;7.32;2.00;;;;;;;;;;5067032;28;20080;-47
2022/06/16 11:17:27;;;;;;;8.07;1.85;;;;;;;;;;5065767;28;20076;-51
2022/06/16 11:20:00;;;;;;;8.48;2.30;;;;;;;;;;5068731;28;20132;-58
2022/06/16 11:22:26;;;;;;;5.40;1.47;;;;;;;;;;5069280;28;20309;-42
2022/06/16 11:24:54;;;;;;;7.37;1.87;;;;;;;;;;5069513;28;20793;-43
2022/06/16 11:27:30;;;;;;;5.18;2.10;;;;;;;;;;5068970;28;20103;-42
2022/06/16 11:29:57;;;;;;;8.05;2.05;;;;;;;;;;5063227;28;20079;-43
2022/06/16 11:32:24;;;;;;;11.20;2.47;;;;;;;;;;5068318;28;20143;-43
2022/06/16 11:34:58;;;;;;;7.00;2.33;;;;;;;;;;5070814;28;20670;-42
2022/06/16 11:37:24;;;;;;;6.43;2.20;;;;;;;;;;5069407;28;20101;-51
2022/06/16 11:39:59;;;;;;;9.18;1.90;;;;;;;;;;5069321;28;20078;-58
2022/06/16 11:42:56;;;;;;;7.40;2.20;;;;;;;;;;5066685;28;20084;-58
2022/06/16 11:45:22;;;;;;;7.05;2.30;;;;;;;;;;5068276;28;20045;-58
2022/06/16 11:48:33;;;;;;;6.03;2.55;;;;;;;;;;5067340;28;20051;-58
2022/06/16 11:51:14;;;;;;;6.20;1.90;;;;;;;;;;5065139;28;20538;-58
2022/06/16 11:54:03;;;;;;;9.55;2.40;;;;;;;;;;5066299;28;20059;-59
2022/06/16 11:56:33;;;;;;;8.07;2.40;;;;;;;;;;5068926;28;20561;-44
2022/06/16 11:59:31;;;;;;;8.80;2.05;;;;;;;;;;5066341;28;20078;-45
2022/06/16 12:02:05;;;;;;;5.93;1.85;;;;;;;;;;5066888;28;20044;-45
2022/06/16 12:04:41;;;;;;;8.43;2.50;;;;;;;;;;5065699;28;20458;-44
2022/06/16 12:07:11;;;;;;;6.90;1.73;;;;;;;;;;5057919;28;20048;-46
2022/06/16 12:09:52;;;;;;;7.60;1.95;;;;;;;;;;5067657;28;20091;-45
2022/06/16 12:12:19;;;;;;;6.53;1.98;;;;;;;;;;5067522;28;21872;-45
2022/06/16 12:15:10;;;;;;;6.43;1.83;;;;;;;;;;5069642;28;20044;-43
2022/06/16 12:17:40;;;;;;;8.15;2.35;;;;;;;;;;5066521;28;20112;-59
2022/06/16 12:20:27;;;;;;;5.55;1.85;;;;;;;;;;5067738;28;20053;-43
2022/06/16 12:23:09;;;;;;;7.82;2.00;;;;;;;;;;5066587;28;20577;-49
2022/06/16 12:25:47;;;;;;;5.13;1.75;;;;;;;;;;5060991;28;20053;-48
2022/06/16 12:28:20;;;;;;;7.30;1.90;;;;;;;;;;5069563;28;20129;-44
2022/06/16 12:31:00;;;;;;;4.13;1.98;;;;;;;;;;5067606;28;20044;-44
2022/06/16 12:33:42;;;;;;;11.60;1.80;;;;;;;;;;5063492;28;20040;-56
2022/06/16 12:36:22;;;;;;;6.93;2.05;;;;;;;;;;5067824;28;20048;-57
2022/06/16 12:39:00;;;;;;;3.85;1.80;;;;;;;;;;5065027;28;20559;-42
2022/06/16 12:41:39;;;;;;;8.63;2.25;;;;;;;;;;5060955;28;20101;-46
2022/06/16 12:44:12;;;;;;;5.68;1.85;;;;;;;;;;5065859;28;20084;-46
2022/06/16 12:46:55;;;;;;;6.05;1.80;;;;;;;;;;5064731;28;20541;-43
2022/06/16 12:49:30;;;;;;;5.55;1.83;;;;;;;;;;5063987;28;20064;-44
2022/06/16 12:52:09;;;;;;;9.00;1.77;;;;;;;;;;5065913;28;20057;-50
2022/06/16 12:54:58;;;;;;;5.95;1.70;;;;;;;;;;5063926;28;20396;-72
2022/06/16 12:57:32;;;;;;;6.18;1.98;;;;;;;;;;5058465;28;20041;-52
2022/06/16 13:00:00;;;;;;;7.32;1.85;;;;;;;;;;5064951;28;20090;-50
2022/06/16 13:02:30;;;;;;;5.20;1.70;;;;;;;;;;5064216;28;20049;-49
2022/06/16 13:05:09;;;;;;;6.78;1.65;;;;;;;;;;5063058;28;20056;-50
2022/06/16 13:07:38;;;;;;;6.50;1.88;;;;;;;;;;5063831;28;20097;-48
2022/06/16 13:10:14;;;;;;;5.18;1.48;;;;;;;;;;5063497;28;20072;-52
2022/06/16 13:12:43;;;;;;;8.70;2.10;;;;;;;;;;5061607;28;20079;-59
2022/06/16 13:15:13;;;;;;;5.75;1.90;;;;;;;;;;5064634;28;20047;-60
2022/06/16 13:17:58;;;;;;;4.30;1.50;;;;;;;;;;5063020;28;20080;-59
2022/06/16 13:20:28;;;;;;;5.88;1.90;;;;;;;;;;5063329;28;20075;-59
2022/06/16 13:23:10;;;;;;;4.65;1.80;;;;;;;;;;5064360;28;20079;-59
2022/06/16 13:26:16;;;;;;;8.15;1.63;;;;;;;;;;5064115;28;20598;-60
2022/06/16 13:29:05;;;;;;;5.60;1.75;;;;;;;;;;4978148;28;20121;-60
2022/06/16 13:31:43;;;;;;;6.45;1.65;;;;;;;;;;4975712;28;20104;-50
2022/06/16 13:34:19;;;;;;;4.10;1.85;;;;;;;;;;5041835;28;20053;-55
2022/06/16 13:36:53;;;;;;;6.65;1.77;;;;;;;;;;5062293;28;20080;-55
2022/06/16 13:39:44;;;;;;;8.77;2.00;;;;;;;;;;5062782;28;20109;-54
2022/06/16 13:42:19;;;;;;;9.77;3.00;;;;;;;;;;5064713;28;20080;-53
2022/06/16 13:45:21;;;;;;;15.95;2.60;;;;;;;;;;5066171;28;20098;-46
2022/06/16 13:48:03;;;;;;;7.07;2.30;;;;;;;;;;4993249;28;20116;-50
2022/06/16 13:50:52;;;;;;;8.60;2.45;;;;;;;;;;5044903;28;20080;-48
2022/06/16 13:53:42;;;;;;;9.68;2.83;;;;;;;;;;5046335;28;20091;-47
2022/06/16 13:56:22;;;;;;;9.35;2.60;;;;;;;;;;5044488;28;20524;-47
2022/06/16 13:59:14;;;;;;;15.00;2.75;;;;;;;;;;5046376;28;20037;-46
2022/06/16 14:01:58;;;;;;;6.18;1.85;;;;;;;;;;5045137;28;20084;-46
2022/06/16 14:04:26;;;;;;;11.02;2.50;;;;;;;;;;5047738;28;20401;-46
2022/06/16 14:07:00;;;;;;;11.05;2.63;;;;;;;;;;5051354;28;20124;-47
2022/06/16 14:09:31;;;;;;;5.88;2.00;;;;;;;;;;5051249;28;20103;-52
2022/06/16 14:11:58;;;;;;;7.95;2.03;;;;;;;;;;5051547;28;20622;-63
2022/06/16 14:14:48;;;;;;;7.40;2.30;;;;;;;;;;5049345;28;20540;-49
2022/06/16 14:17:30;;;;;;;5.15;1.90;;;;;;;;;;5049410;28;20052;-48
2022/06/16 14:20:07;;;;;;;11.23;2.17;;;;;;;;;;5047801;28;20103;-49
2022/06/16 14:22:36;;;;;;;8.48;2.15;;;;;;;;;;5049239;28;20095;-49
2022/06/16 14:25:07;;;;;;;17.35;3.75;;;;;;;;;;5048725;28;20585;-51
2022/06/16 14:27:55;;;;;;;10.95;2.58;;;;;;;;;;5050833;28;20088;-51
2022/06/16 14:30:31;;;;;;;5.85;2.00;;;;;;;;;;5049880;28;20124;-53
2022/06/16 14:33:10;;;;;;;6.57;2.20;;;;;;;;;;5052075;28;20132;-66
2022/06/16 14:35:39;;;;;;;7.20;2.80;;;;;;;;;;5049666;28;20186;-66
2022/06/16 14:38:18;;;;;;;5.63;1.80;;;;;;;;;;5049464;28;20037;-66
2022/06/16 14:40:53;;;;;;;5.28;2.17;;;;;;;;;;5047004;28;20049;-67
2022/06/16 14:43:31;;;;;;;5.90;2.30;;;;;;;;;;5044925;28;20136;-67
2022/06/16 14:46:00;;;;;;;7.43;2.83;;;;;;;;;;5049049;28;20041;-67
2022/06/16 14:48:32;;;;;;;8.10;2.17;;;;;;;;;;5048051;28;20053;-56
2022/06/16 14:51:18;;;;;;;7.20;2.50;;;;;;;;;;5069377;28;20458;-50
2022/06/16 14:53:47;;;;;;;9.68;2.10;;;;;;;;;;5066267;28;20109;-48
2022/06/16 14:56:21;;;;;;;5.00;1.95;;;;;;;;;;5068012;28;20455;-48
2022/06/16 14:58:50;;;;;;;6.28;2.58;;;;;;;;;;5064051;28;20774;-51
2022/06/16 15:01:22;;;;;;;4.85;2.20;;;;;;;;;;5068074;28;20060;-51
2022/06/16 15:03:56;;;;;;;5.90;2.40;;;;;;;;;;5067597;28;20048;-53
2022/06/16 15:06:23;;;;;;;4.13;1.60;;;;;;;;;;5066074;28;20057;-51
2022/06/16 15:08:53;;;;;;;4.25;1.25;;;;;;;;;;5066262;28;20126;-61
2022/06/16 15:11:31;;;;;;;3.58;1.60;;;;;;;;;;5064555;28;20044;-60
2022/06/16 15:14:01;;;;;;;5.55;1.60;;;;;;;;;;5068905;28;20098;-60
2022/06/16 15:19:24;;;;;;;7.07;2.20;;;;;;;;;;5065751;28;20044;-60
2022/06/16 15:21:58;;;;;;;4.00;1.58;;;;;;;;;;5067836;28;20095;-60
2022/06/16 15:24:34;;;;;;;3.03;1.40;;;;;;;;;;5066010;28;20122;-63
2022/06/16 15:27:09;;;;;;;2.47;1.33;;;;;;;;;;5065671;28;20135;-60
2022/06/16 15:29:40;;;;;;;3.15;1.25;;;;;;;;;;5064774;28;20052;-63
2022/06/16 15:36:08;;;;;;;3.88;1.40;;;;;;;;;;5069888;28;20084;-62
2022/06/16 15:38:04;;;;;;;3.30;1.50;;;;;;;;;;5068670;28;20048;-63
2022/06/16 15:40:38;;;;;;;2.22;1.30;;;;;;;;;;5063859;28;20083;-63
2022/06/16 15:43:05;;;;;;;0.98;0.77;;;;;;;;;;5069090;28;20095;-63
2022/06/16 15:45:34;;;;;;;4.90;1.58;;;;;;;;;;5068871;28;20052;-52
2022/06/16 15:48:14;;;;;;;2.22;1.40;;;;;;;;;;5064022;28;20049;-60